sensor_id;sensor_type;location;lat;lon;timestamp;P1;durP1;ratioP1;P2;durP2;ratioP2
68319;SDS011;55168;51.120;17.024;2022-09-29T00:00:00;7.5;;;6.8;;
68319;SDS011;55168;51.120;17.024;2022-09-29T00:01:00;7.3;;;6.6;;
68319;SDS011;55168;51.120;17.024;2022-09-29T00:02:00;7.3;;;6.6;;
68319;SDS011;55168;51.120;17.024;2022-09-29T00:03:00;7.3;;;6.6;;
68319;SDS011;55168;51.120;17.024;2022-09-29T00:04:00;7.3;;;6.6;;
68319;SDS011;55168;51.120;17.024;2022-09-29T00:05:00;7.3;;;6.6;;
68319;SDS011;55168;51.120;17.024;2022-09-29T00:06:00;7.8;;;6.7;;
68319;SDS011;55168;51.120;17.024;2022-09-29T00:07:00;7.8;;;6.7;;
68319;SDS011;55168;51.120;17.024;2022-09-29T00:08:00;7.8;;;6.7;;
68319;SDS011;55168;51.120;17.024;2022-09-29T00:09:00;7.8;;;6.7;;
68319;SDS011;55168;51.120;17.024;2022-09-29T00:10:00;7.8;;;6.7;;
68319;SDS011;55168;51.120;17.024;2022-09-29T00:11:00;6.9;;;6.3;;
68319;SDS011;55168;51.120;17.024;2022-09-29T00:12:00;6.9;;;6.3;;
68319;SDS011;55168;51.120;17.024;2022-09-29T00:13:00;6.9;;;6.3;;
68319;SDS011;55168;51.120;17.024;2022-09-29T00:14:00;6.9;;;6.3;;
68319;SDS011;55168;51.120;17.024;2022-09-29T00:15:00;6.9;;;6.3;;
68319;SDS011;55168;51.120;17.024;2022-09-29T00:16:01;7.1;;;6.4;;
68319;SDS011;55168;51.120;17.024;2022-09-29T00:17:00;7.1;;;6.4;;
68319;SDS011;55168;51.120;17.024;2022-09-29T00:18:00;7.1;;;6.4;;
68319;SDS011;55168;51.120;17.024;2022-09-29T00:19:00;7.1;;;6.4;;
68319;SDS011;55168;51.120;17.024;2022-09-29T00:20:00;7.1;;;6.4;;
68319;SDS011;55168;51.120;17.024;2022-09-29T00:21:02;7.3;;;6.6;;
68319;SDS011;55168;51.120;17.024;2022-09-29T00:22:00;7.3;;;6.6;;
68319;SDS011;55168;51.120;17.024;2022-09-29T00:23:00;7.3;;;6.6;;
68319;SDS011;55168;51.120;17.024;2022-09-29T00:24:00;7.3;;;6.6;;
68319;SDS011;55168;51.120;17.024;2022-09-29T00:25:00;7.3;;;6.6;;
68319;SDS011;55168;51.120;17.024;2022-09-29T00:27:00;7.5;;;6.7;;
68319;SDS011;55168;51.120;17.024;2022-09-29T00:28:00;7.5;;;6.7;;
68319;SDS011;55168;51.120;17.024;2022-09-29T00:29:00;7.5;;;6.7;;
68319;SDS011;55168;51.120;17.024;2022-09-29T00:30:00;7.5;;;6.7;;
68319;SDS011;55168;51.120;17.024;2022-09-29T00:31:01;8.6;;;7.8;;
68319;SDS011;55168;51.120;17.024;2022-09-29T00:32:00;8.6;;;7.8;;
68319;SDS011;55168;51.120;17.024;2022-09-29T00:33:00;8.6;;;7.8;;
68319;SDS011;55168;51.120;17.024;2022-09-29T00:34:00;8.6;;;7.8;;
68319;SDS011;55168;51.120;17.024;2022-09-29T00:35:00;8.6;;;7.8;;
68319;SDS011;55168;51.120;17.024;2022-09-29T00:36:02;8.7;;;7.8;;
68319;SDS011;55168;51.120;17.024;2022-09-29T00:37:00;8.7;;;7.8;;
68319;SDS011;55168;51.120;17.024;2022-09-29T00:38:00;8.7;;;7.8;;
68319;SDS011;55168;51.120;17.024;2022-09-29T00:39:00;8.7;;;7.8;;
68319;SDS011;55168;51.120;17.024;2022-09-29T00:40:00;8.7;;;7.8;;
68319;SDS011;55168;51.120;17.024;2022-09-29T00:41:00;10.0;;;8.0;;
68319;SDS011;55168;51.120;17.024;2022-09-29T00:42:00;10.0;;;8.0;;
68319;SDS011;55168;51.120;17.024;2022-09-29T00:43:00;10.0;;;8.0;;
68319;SDS011;55168;51.120;17.024;2022-09-29T00:44:03;10.0;;;8.0;;
68319;SDS011;55168;51.120;17.024;2022-09-29T00:45:19;10.0;;;8.0;;
68319;SDS011;55168;51.120;17.024;2022-09-29T00:46:00;9.4;;;7.8;;
68319;SDS011;55168;51.120;17.024;2022-09-29T00:47:02;9.4;;;7.8;;
68319;SDS011;55168;51.120;17.024;2022-09-29T00:48:05;9.4;;;7.8;;
68319;SDS011;55168;51.120;17.024;2022-09-29T00:49:08;9.4;;;7.8;;
68319;SDS011;55168;51.120;17.024;2022-09-29T00:50:12;9.4;;;7.8;;
68319;SDS011;55168;51.120;17.024;2022-09-29T00:51:00;8.7;;;7.4;;
68319;SDS011;55168;51.120;17.024;2022-09-29T00:52:03;8.7;;;7.4;;
68319;SDS011;55168;51.120;17.024;2022-09-29T00:53:01;8.7;;;7.4;;
68319;SDS011;55168;51.120;17.024;2022-09-29T00:54:00;8.7;;;7.4;;
68319;SDS011;55168;51.120;17.024;2022-09-29T00:55:05;8.7;;;7.4;;
68319;SDS011;55168;51.120;17.024;2022-09-29T00:56:03;9.6;;;8.4;;
68319;SDS011;55168;51.120;17.024;2022-09-29T00:57:01;9.6;;;8.4;;
68319;SDS011;55168;51.120;17.024;2022-09-29T00:58:04;9.6;;;8.4;;
68319;SDS011;55168;51.120;17.024;2022-09-29T00:59:04;9.6;;;8.4;;
68319;SDS011;55168;51.120;17.024;2022-09-29T01:00:05;9.6;;;8.4;;
68319;SDS011;55168;51.120;17.024;2022-09-29T01:01:00;8.6;;;7.7;;
68319;SDS011;55168;51.120;17.024;2022-09-29T01:02:00;8.6;;;7.7;;
68319;SDS011;55168;51.120;17.024;2022-09-29T01:03:04;8.6;;;7.7;;
68319;SDS011;55168;51.120;17.024;2022-09-29T01:04:03;8.6;;;7.7;;
68319;SDS011;55168;51.120;17.024;2022-09-29T01:05:02;8.6;;;7.7;;
68319;SDS011;55168;51.120;17.024;2022-09-29T01:06:04;9.4;;;7.7;;
68319;SDS011;55168;51.120;17.024;2022-09-29T01:07:00;9.4;;;7.7;;
68319;SDS011;55168;51.120;17.024;2022-09-29T01:08:07;9.4;;;7.7;;
68319;SDS011;55168;51.120;17.024;2022-09-29T01:09:03;9.4;;;7.7;;
68319;SDS011;55168;51.120;17.024;2022-09-29T01:10:00;9.4;;;7.7;;
68319;SDS011;55168;51.120;17.024;2022-09-29T01:11:00;8.5;;;7.5;;
68319;SDS011;55168;51.120;17.024;2022-09-29T01:12:00;8.5;;;7.5;;
68319;SDS011;55168;51.120;17.024;2022-09-29T01:13:00;8.5;;;7.5;;
68319;SDS011;55168;51.120;17.024;2022-09-29T01:14:02;8.5;;;7.5;;
68319;SDS011;55168;51.120;17.024;2022-09-29T01:15:00;8.5;;;7.5;;
68319;SDS011;55168;51.120;17.024;2022-09-29T01:16:00;9.5;;;7.4;;
68319;SDS011;55168;51.120;17.024;2022-09-29T01:17:00;9.5;;;7.4;;
68319;SDS011;55168;51.120;17.024;2022-09-29T01:18:00;9.5;;;7.4;;
68319;SDS011;55168;51.120;17.024;2022-09-29T01:19:02;9.5;;;7.4;;
68319;SDS011;55168;51.120;17.024;2022-09-29T01:20:11;9.5;;;7.4;;
68319;SDS011;55168;51.120;17.024;2022-09-29T01:22:05;8.2;;;7.4;;
68319;SDS011;55168;51.120;17.024;2022-09-29T01:25:07;8.2;;;7.4;;
68319;SDS011;55168;51.120;17.024;2022-09-29T01:26:22;8.7;;;7.5;;
68319;SDS011;55168;51.120;17.024;2022-09-29T01:27:15;8.7;;;7.5;;
68319;SDS011;55168;51.120;17.024;2022-09-29T01:28:15;8.7;;;7.5;;
68319;SDS011;55168;51.120;17.024;2022-09-29T01:32:09;8.6;;;7.6;;
68319;SDS011;55168;51.120;17.024;2022-09-29T01:34:08;8.6;;;7.6;;
68319;SDS011;55168;51.120;17.024;2022-09-29T01:35:07;8.6;;;7.6;;
68319;SDS011;55168;51.120;17.024;2022-09-29T01:36:17;9.5;;;8.0;;
68319;SDS011;55168;51.120;17.024;2022-09-29T01:38:10;9.5;;;8.0;;
68319;SDS011;55168;51.120;17.024;2022-09-29T01:40:12;9.5;;;8.0;;
68319;SDS011;55168;51.120;17.024;2022-09-29T01:41:05;9.2;;;8.2;;
68319;SDS011;55168;51.120;17.024;2022-09-29T01:42:12;9.2;;;8.2;;
68319;SDS011;55168;51.120;17.024;2022-09-29T01:43:04;9.2;;;8.2;;
68319;SDS011;55168;51.120;17.024;2022-09-29T01:44:03;9.2;;;8.2;;
68319;SDS011;55168;51.120;17.024;2022-09-29T01:45:10;9.2;;;8.2;;
68319;SDS011;55168;51.120;17.024;2022-09-29T01:46:08;10.3;;;8.3;;
68319;SDS011;55168;51.120;17.024;2022-09-29T01:47:04;10.3;;;8.3;;
68319;SDS011;55168;51.120;17.024;2022-09-29T01:48:04;10.3;;;8.3;;
68319;SDS011;55168;51.120;17.024;2022-09-29T01:49:02;10.3;;;8.3;;
68319;SDS011;55168;51.120;17.024;2022-09-29T01:50:03;10.3;;;8.3;;
68319;SDS011;55168;51.120;17.024;2022-09-29T01:51:05;10.8;;;8.5;;
68319;SDS011;55168;51.120;17.024;2022-09-29T01:52:05;10.8;;;8.5;;
68319;SDS011;55168;51.120;17.024;2022-09-29T01:53:07;10.8;;;8.5;;
68319;SDS011;55168;51.120;17.024;2022-09-29T01:54:04;10.8;;;8.5;;
68319;SDS011;55168;51.120;17.024;2022-09-29T01:55:04;10.8;;;8.5;;
68319;SDS011;55168;51.120;17.024;2022-09-29T01:56:02;9.8;;;8.3;;
68319;SDS011;55168;51.120;17.024;2022-09-29T01:57:06;9.8;;;8.3;;
68319;SDS011;55168;51.120;17.024;2022-09-29T01:58:04;9.8;;;8.3;;
68319;SDS011;55168;51.120;17.024;2022-09-29T01:59:05;9.8;;;8.3;;
68319;SDS011;55168;51.120;17.024;2022-09-29T02:00:04;9.8;;;8.3;;
68319;SDS011;55168;51.120;17.024;2022-09-29T02:01:03;11.6;;;9.2;;
68319;SDS011;55168;51.120;17.024;2022-09-29T02:02:06;11.6;;;9.2;;
68319;SDS011;55168;51.120;17.024;2022-09-29T02:04:04;11.6;;;9.2;;
68319;SDS011;55168;51.120;17.024;2022-09-29T02:05:03;11.6;;;9.2;;
68319;SDS011;55168;51.120;17.024;2022-09-29T02:06:03;12.6;;;9.0;;
68319;SDS011;55168;51.120;17.024;2022-09-29T02:07:05;12.6;;;9.0;;
68319;SDS011;55168;51.120;17.024;2022-09-29T02:08:08;12.6;;;9.0;;
68319;SDS011;55168;51.120;17.024;2022-09-29T02:09:02;12.6;;;9.0;;
68319;SDS011;55168;51.120;17.024;2022-09-29T02:10:02;12.6;;;9.0;;
68319;SDS011;55168;51.120;17.024;2022-09-29T02:11:03;10.3;;;9.2;;
68319;SDS011;55168;51.120;17.024;2022-09-29T02:12:01;10.3;;;9.2;;
68319;SDS011;55168;51.120;17.024;2022-09-29T02:13:02;10.3;;;9.2;;
68319;SDS011;55168;51.120;17.024;2022-09-29T02:14:10;10.3;;;9.2;;
68319;SDS011;55168;51.120;17.024;2022-09-29T02:15:01;10.3;;;9.2;;
68319;SDS011;55168;51.120;17.024;2022-09-29T02:16:00;12.7;;;9.2;;
68319;SDS011;55168;51.120;17.024;2022-09-29T02:17:05;12.7;;;9.2;;
68319;SDS011;55168;51.120;17.024;2022-09-29T02:18:05;12.7;;;9.2;;
68319;SDS011;55168;51.120;17.024;2022-09-29T02:19:04;12.7;;;9.2;;
68319;SDS011;55168;51.120;17.024;2022-09-29T02:20:00;12.7;;;9.2;;
68319;SDS011;55168;51.120;17.024;2022-09-29T02:21:00;10.8;;;9.4;;
68319;SDS011;55168;51.120;17.024;2022-09-29T02:22:00;10.8;;;9.4;;
68319;SDS011;55168;51.120;17.024;2022-09-29T02:23:00;10.8;;;9.4;;
68319;SDS011;55168;51.120;17.024;2022-09-29T02:24:00;10.8;;;9.4;;
68319;SDS011;55168;51.120;17.024;2022-09-29T02:25:00;10.8;;;9.4;;
68319;SDS011;55168;51.120;17.024;2022-09-29T02:26:01;10.9;;;9.3;;
68319;SDS011;55168;51.120;17.024;2022-09-29T02:27:01;10.9;;;9.3;;
68319;SDS011;55168;51.120;17.024;2022-09-29T02:28:00;10.9;;;9.3;;
68319;SDS011;55168;51.120;17.024;2022-09-29T02:29:01;10.9;;;9.3;;
68319;SDS011;55168;51.120;17.024;2022-09-29T02:30:00;10.9;;;9.3;;
68319;SDS011;55168;51.120;17.024;2022-09-29T02:31:00;12.9;;;9.7;;
68319;SDS011;55168;51.120;17.024;2022-09-29T02:32:00;12.9;;;9.7;;
68319;SDS011;55168;51.120;17.024;2022-09-29T02:33:00;12.9;;;9.7;;
68319;SDS011;55168;51.120;17.024;2022-09-29T02:34:00;12.9;;;9.7;;
68319;SDS011;55168;51.120;17.024;2022-09-29T02:35:00;12.9;;;9.7;;
68319;SDS011;55168;51.120;17.024;2022-09-29T02:36:10;10.6;;;9.2;;
68319;SDS011;55168;51.120;17.024;2022-09-29T02:38:05;10.6;;;9.2;;
68319;SDS011;55168;51.120;17.024;2022-09-29T02:39:12;10.6;;;9.2;;
68319;SDS011;55168;51.120;17.024;2022-09-29T02:40:10;10.6;;;9.2;;
68319;SDS011;55168;51.120;17.024;2022-09-29T02:41:06;11.3;;;10.1;;
68319;SDS011;55168;51.120;17.024;2022-09-29T02:44:14;11.3;;;10.1;;
68319;SDS011;55168;51.120;17.024;2022-09-29T02:47:13;10.9;;;9.8;;
68319;SDS011;55168;51.120;17.024;2022-09-29T02:48:06;10.9;;;9.8;;
68319;SDS011;55168;51.120;17.024;2022-09-29T02:50:14;10.9;;;9.8;;
68319;SDS011;55168;51.120;17.024;2022-09-29T02:52:07;11.8;;;9.7;;
68319;SDS011;55168;51.120;17.024;2022-09-29T02:53:12;11.8;;;9.7;;
68319;SDS011;55168;51.120;17.024;2022-09-29T02:55:08;11.8;;;9.7;;
68319;SDS011;55168;51.120;17.024;2022-09-29T02:57:27;10.7;;;9.2;;
68319;SDS011;55168;51.120;17.024;2022-09-29T02:58:11;10.7;;;9.2;;
68319;SDS011;55168;51.120;17.024;2022-09-29T02:59:07;10.7;;;9.2;;
68319;SDS011;55168;51.120;17.024;2022-09-29T03:01:00;11.8;;;9.6;;
68319;SDS011;55168;51.120;17.024;2022-09-29T03:02:00;11.8;;;9.6;;
68319;SDS011;55168;51.120;17.024;2022-09-29T03:03:00;11.8;;;9.6;;
68319;SDS011;55168;51.120;17.024;2022-09-29T03:04:00;11.8;;;9.6;;
68319;SDS011;55168;51.120;17.024;2022-09-29T03:05:01;11.8;;;9.6;;
68319;SDS011;55168;51.120;17.024;2022-09-29T03:06:00;12.8;;;10.2;;
68319;SDS011;55168;51.120;17.024;2022-09-29T03:07:00;12.8;;;10.2;;
68319;SDS011;55168;51.120;17.024;2022-09-29T03:08:00;12.8;;;10.2;;
68319;SDS011;55168;51.120;17.024;2022-09-29T03:09:00;12.8;;;10.2;;
68319;SDS011;55168;51.120;17.024;2022-09-29T03:10:00;12.8;;;10.2;;
68319;SDS011;55168;51.120;17.024;2022-09-29T03:11:00;12.3;;;9.9;;
68319;SDS011;55168;51.120;17.024;2022-09-29T03:12:00;12.3;;;9.9;;
68319;SDS011;55168;51.120;17.024;2022-09-29T03:13:00;12.3;;;9.9;;
68319;SDS011;55168;51.120;17.024;2022-09-29T03:14:00;12.3;;;9.9;;
68319;SDS011;55168;51.120;17.024;2022-09-29T03:15:00;12.3;;;9.9;;
68319;SDS011;55168;51.120;17.024;2022-09-29T03:16:00;11.9;;;9.8;;
68319;SDS011;55168;51.120;17.024;2022-09-29T03:17:00;11.9;;;9.8;;
68319;SDS011;55168;51.120;17.024;2022-09-29T03:18:00;11.9;;;9.8;;
68319;SDS011;55168;51.120;17.024;2022-09-29T03:19:00;11.9;;;9.8;;
68319;SDS011;55168;51.120;17.024;2022-09-29T03:20:00;11.9;;;9.8;;
68319;SDS011;55168;51.120;17.024;2022-09-29T03:21:00;13.9;;;9.6;;
68319;SDS011;55168;51.120;17.024;2022-09-29T03:22:00;13.9;;;9.6;;
68319;SDS011;55168;51.120;17.024;2022-09-29T03:23:00;13.9;;;9.6;;
68319;SDS011;55168;51.120;17.024;2022-09-29T03:24:00;13.9;;;9.6;;
68319;SDS011;55168;51.120;17.024;2022-09-29T03:25:00;13.9;;;9.6;;
68319;SDS011;55168;51.120;17.024;2022-09-29T03:26:00;11.6;;;9.0;;
68319;SDS011;55168;51.120;17.024;2022-09-29T03:27:00;11.6;;;9.0;;
68319;SDS011;55168;51.120;17.024;2022-09-29T03:28:00;11.6;;;9.0;;
68319;SDS011;55168;51.120;17.024;2022-09-29T03:29:00;11.6;;;9.0;;
68319;SDS011;55168;51.120;17.024;2022-09-29T03:30:00;11.6;;;9.0;;
68319;SDS011;55168;51.120;17.024;2022-09-29T03:31:04;10.3;;;9.1;;
68319;SDS011;55168;51.120;17.024;2022-09-29T03:32:00;10.3;;;9.1;;
68319;SDS011;55168;51.120;17.024;2022-09-29T03:33:00;10.3;;;9.1;;
68319;SDS011;55168;51.120;17.024;2022-09-29T03:34:00;10.3;;;9.1;;
68319;SDS011;55168;51.120;17.024;2022-09-29T03:35:00;10.3;;;9.1;;
68319;SDS011;55168;51.120;17.024;2022-09-29T03:36:00;12.0;;;9.6;;
68319;SDS011;55168;51.120;17.024;2022-09-29T03:37:00;12.0;;;9.6;;
68319;SDS011;55168;51.120;17.024;2022-09-29T03:38:00;12.0;;;9.6;;
68319;SDS011;55168;51.120;17.024;2022-09-29T03:39:00;12.0;;;9.6;;
68319;SDS011;55168;51.120;17.024;2022-09-29T03:40:00;12.0;;;9.6;;
68319;SDS011;55168;51.120;17.024;2022-09-29T03:41:00;12.0;;;9.4;;
68319;SDS011;55168;51.120;17.024;2022-09-29T03:42:00;12.0;;;9.4;;
68319;SDS011;55168;51.120;17.024;2022-09-29T03:43:00;12.0;;;9.4;;
68319;SDS011;55168;51.120;17.024;2022-09-29T03:44:00;12.0;;;9.4;;
68319;SDS011;55168;51.120;17.024;2022-09-29T03:45:00;12.0;;;9.4;;
68319;SDS011;55168;51.120;17.024;2022-09-29T03:46:00;11.7;;;9.5;;
68319;SDS011;55168;51.120;17.024;2022-09-29T03:47:00;11.7;;;9.5;;
68319;SDS011;55168;51.120;17.024;2022-09-29T03:48:00;11.7;;;9.5;;
68319;SDS011;55168;51.120;17.024;2022-09-29T03:49:00;11.7;;;9.5;;
68319;SDS011;55168;51.120;17.024;2022-09-29T03:50:00;11.7;;;9.5;;
68319;SDS011;55168;51.120;17.024;2022-09-29T03:51:00;11.6;;;9.3;;
68319;SDS011;55168;51.120;17.024;2022-09-29T03:52:00;11.6;;;9.3;;
68319;SDS011;55168;51.120;17.024;2022-09-29T03:53:00;11.6;;;9.3;;
68319;SDS011;55168;51.120;17.024;2022-09-29T03:54:00;11.6;;;9.3;;
68319;SDS011;55168;51.120;17.024;2022-09-29T03:55:00;11.6;;;9.3;;
68319;SDS011;55168;51.120;17.024;2022-09-29T03:56:00;10.0;;;8.9;;
68319;SDS011;55168;51.120;17.024;2022-09-29T03:57:00;10.0;;;8.9;;
68319;SDS011;55168;51.120;17.024;2022-09-29T03:58:00;10.0;;;8.9;;
68319;SDS011;55168;51.120;17.024;2022-09-29T03:59:00;10.0;;;8.9;;
68319;SDS011;55168;51.120;17.024;2022-09-29T04:00:00;10.0;;;8.9;;
68319;SDS011;55168;51.120;17.024;2022-09-29T04:01:00;11.6;;;8.9;;
68319;SDS011;55168;51.120;17.024;2022-09-29T04:02:00;11.6;;;8.9;;
68319;SDS011;55168;51.120;17.024;2022-09-29T04:03:00;11.6;;;8.9;;
68319;SDS011;55168;51.120;17.024;2022-09-29T04:04:00;11.6;;;8.9;;
68319;SDS011;55168;51.120;17.024;2022-09-29T04:05:00;10.2;;;8.9;;
68319;SDS011;55168;51.120;17.024;2022-09-29T04:06:00;10.2;;;8.9;;
68319;SDS011;55168;51.120;17.024;2022-09-29T04:07:00;10.2;;;8.9;;
68319;SDS011;55168;51.120;17.024;2022-09-29T04:08:00;10.2;;;8.9;;
68319;SDS011;55168;51.120;17.024;2022-09-29T04:09:00;10.2;;;8.9;;
68319;SDS011;55168;51.120;17.024;2022-09-29T04:10:00;10.1;;;8.8;;
68319;SDS011;55168;51.120;17.024;2022-09-29T04:11:00;10.1;;;8.8;;
68319;SDS011;55168;51.120;17.024;2022-09-29T04:12:00;10.1;;;8.8;;
68319;SDS011;55168;51.120;17.024;2022-09-29T04:13:00;10.1;;;8.8;;
68319;SDS011;55168;51.120;17.024;2022-09-29T04:14:00;10.1;;;8.8;;
68319;SDS011;55168;51.120;17.024;2022-09-29T04:15:00;10.0;;;8.6;;
68319;SDS011;55168;51.120;17.024;2022-09-29T04:16:02;10.0;;;8.6;;
68319;SDS011;55168;51.120;17.024;2022-09-29T04:17:00;10.0;;;8.6;;
68319;SDS011;55168;51.120;17.024;2022-09-29T04:18:00;10.0;;;8.6;;
68319;SDS011;55168;51.120;17.024;2022-09-29T04:19:00;10.0;;;8.6;;
68319;SDS011;55168;51.120;17.024;2022-09-29T04:20:00;12.2;;;9.5;;
68319;SDS011;55168;51.120;17.024;2022-09-29T04:21:04;12.2;;;9.5;;
68319;SDS011;55168;51.120;17.024;2022-09-29T04:22:00;12.2;;;9.5;;
68319;SDS011;55168;51.120;17.024;2022-09-29T04:23:00;12.2;;;9.5;;
68319;SDS011;55168;51.120;17.024;2022-09-29T04:24:00;12.2;;;9.5;;
68319;SDS011;55168;51.120;17.024;2022-09-29T04:25:00;10.7;;;9.1;;
68319;SDS011;55168;51.120;17.024;2022-09-29T04:26:00;10.7;;;9.1;;
68319;SDS011;55168;51.120;17.024;2022-09-29T04:27:00;10.7;;;9.1;;
68319;SDS011;55168;51.120;17.024;2022-09-29T04:28:00;10.7;;;9.1;;
68319;SDS011;55168;51.120;17.024;2022-09-29T04:29:00;10.7;;;9.1;;
68319;SDS011;55168;51.120;17.024;2022-09-29T04:30:00;12.5;;;9.4;;
68319;SDS011;55168;51.120;17.024;2022-09-29T04:31:00;12.5;;;9.4;;
68319;SDS011;55168;51.120;17.024;2022-09-29T04:32:00;12.5;;;9.4;;
68319;SDS011;55168;51.120;17.024;2022-09-29T04:33:00;12.5;;;9.4;;
68319;SDS011;55168;51.120;17.024;2022-09-29T04:34:00;12.5;;;9.4;;
68319;SDS011;55168;51.120;17.024;2022-09-29T04:35:00;15.0;;;10.9;;
68319;SDS011;55168;51.120;17.024;2022-09-29T04:36:00;15.0;;;10.9;;
68319;SDS011;55168;51.120;17.024;2022-09-29T04:37:00;15.0;;;10.9;;
68319;SDS011;55168;51.120;17.024;2022-09-29T04:38:00;15.0;;;10.9;;
68319;SDS011;55168;51.120;17.024;2022-09-29T04:39:00;15.0;;;10.9;;
68319;SDS011;55168;51.120;17.024;2022-09-29T04:40:00;13.2;;;10.3;;
68319;SDS011;55168;51.120;17.024;2022-09-29T04:41:00;13.2;;;10.3;;
68319;SDS011;55168;51.120;17.024;2022-09-29T04:42:00;13.2;;;10.3;;
68319;SDS011;55168;51.120;17.024;2022-09-29T04:43:00;13.2;;;10.3;;
68319;SDS011;55168;51.120;17.024;2022-09-29T04:44:00;13.2;;;10.3;;
68319;SDS011;55168;51.120;17.024;2022-09-29T04:45:00;14.8;;;10.1;;
68319;SDS011;55168;51.120;17.024;2022-09-29T04:46:00;14.8;;;10.1;;
68319;SDS011;55168;51.120;17.024;2022-09-29T04:47:00;14.8;;;10.1;;
68319;SDS011;55168;51.120;17.024;2022-09-29T04:48:00;14.8;;;10.1;;
68319;SDS011;55168;51.120;17.024;2022-09-29T04:49:00;14.8;;;10.1;;
68319;SDS011;55168;51.120;17.024;2022-09-29T04:50:00;14.6;;;10.7;;
68319;SDS011;55168;51.120;17.024;2022-09-29T04:51:00;14.6;;;10.7;;
68319;SDS011;55168;51.120;17.024;2022-09-29T04:52:00;14.6;;;10.7;;
68319;SDS011;55168;51.120;17.024;2022-09-29T04:53:00;14.6;;;10.7;;
68319;SDS011;55168;51.120;17.024;2022-09-29T04:54:00;14.6;;;10.7;;
68319;SDS011;55168;51.120;17.024;2022-09-29T04:55:00;13.1;;;9.9;;
68319;SDS011;55168;51.120;17.024;2022-09-29T04:56:04;13.1;;;9.9;;
68319;SDS011;55168;51.120;17.024;2022-09-29T04:57:00;13.1;;;9.9;;
68319;SDS011;55168;51.120;17.024;2022-09-29T04:58:00;13.1;;;9.9;;
68319;SDS011;55168;51.120;17.024;2022-09-29T04:59:00;13.1;;;9.9;;
68319;SDS011;55168;51.120;17.024;2022-09-29T05:00:00;13.5;;;10.3;;
68319;SDS011;55168;51.120;17.024;2022-09-29T05:01:04;13.5;;;10.3;;
68319;SDS011;55168;51.120;17.024;2022-09-29T05:02:00;13.5;;;10.3;;
68319;SDS011;55168;51.120;17.024;2022-09-29T05:03:00;13.5;;;10.3;;
68319;SDS011;55168;51.120;17.024;2022-09-29T05:04:00;13.5;;;10.3;;
68319;SDS011;55168;51.120;17.024;2022-09-29T05:05:00;16.2;;;12.0;;
68319;SDS011;55168;51.120;17.024;2022-09-29T05:06:00;16.2;;;12.0;;
68319;SDS011;55168;51.120;17.024;2022-09-29T05:07:00;16.2;;;12.0;;
68319;SDS011;55168;51.120;17.024;2022-09-29T05:08:02;16.2;;;12.0;;
68319;SDS011;55168;51.120;17.024;2022-09-29T05:09:00;16.2;;;12.0;;
68319;SDS011;55168;51.120;17.024;2022-09-29T05:10:00;16.6;;;11.8;;
68319;SDS011;55168;51.120;17.024;2022-09-29T05:11:04;16.6;;;11.8;;
68319;SDS011;55168;51.120;17.024;2022-09-29T05:12:00;16.6;;;11.8;;
68319;SDS011;55168;51.120;17.024;2022-09-29T05:13:00;16.6;;;11.8;;
68319;SDS011;55168;51.120;17.024;2022-09-29T05:14:00;16.6;;;11.8;;
68319;SDS011;55168;51.120;17.024;2022-09-29T05:15:00;15.0;;;11.5;;
68319;SDS011;55168;51.120;17.024;2022-09-29T05:16:00;15.0;;;11.5;;
68319;SDS011;55168;51.120;17.024;2022-09-29T05:17:00;15.0;;;11.5;;
68319;SDS011;55168;51.120;17.024;2022-09-29T05:18:01;15.0;;;11.5;;
68319;SDS011;55168;51.120;17.024;2022-09-29T05:19:00;15.0;;;11.5;;
68319;SDS011;55168;51.120;17.024;2022-09-29T05:20:00;17.2;;;12.8;;
68319;SDS011;55168;51.120;17.024;2022-09-29T05:21:03;17.2;;;12.8;;
68319;SDS011;55168;51.120;17.024;2022-09-29T05:22:00;17.2;;;12.8;;
68319;SDS011;55168;51.120;17.024;2022-09-29T05:23:00;17.2;;;12.8;;
68319;SDS011;55168;51.120;17.024;2022-09-29T05:24:00;17.2;;;12.8;;
68319;SDS011;55168;51.120;17.024;2022-09-29T05:25:00;20.2;;;13.4;;
68319;SDS011;55168;51.120;17.024;2022-09-29T05:26:03;20.2;;;13.4;;
68319;SDS011;55168;51.120;17.024;2022-09-29T05:27:00;20.2;;;13.4;;
68319;SDS011;55168;51.120;17.024;2022-09-29T05:28:00;20.2;;;13.4;;
68319;SDS011;55168;51.120;17.024;2022-09-29T05:29:00;20.2;;;13.4;;
68319;SDS011;55168;51.120;17.024;2022-09-29T05:30:00;17.4;;;12.9;;
68319;SDS011;55168;51.120;17.024;2022-09-29T05:31:00;17.4;;;12.9;;
68319;SDS011;55168;51.120;17.024;2022-09-29T05:32:00;17.4;;;12.9;;
68319;SDS011;55168;51.120;17.024;2022-09-29T05:33:00;17.4;;;12.9;;
68319;SDS011;55168;51.120;17.024;2022-09-29T05:34:00;17.4;;;12.9;;
68319;SDS011;55168;51.120;17.024;2022-09-29T05:35:00;15.7;;;12.4;;
68319;SDS011;55168;51.120;17.024;2022-09-29T05:36:00;15.7;;;12.4;;
68319;SDS011;55168;51.120;17.024;2022-09-29T05:37:00;15.7;;;12.4;;
68319;SDS011;55168;51.120;17.024;2022-09-29T05:38:00;15.7;;;12.4;;
68319;SDS011;55168;51.120;17.024;2022-09-29T05:39:00;15.7;;;12.4;;
68319;SDS011;55168;51.120;17.024;2022-09-29T05:40:00;19.6;;;12.8;;
68319;SDS011;55168;51.120;17.024;2022-09-29T05:41:04;19.6;;;12.8;;
68319;SDS011;55168;51.120;17.024;2022-09-29T05:42:00;19.6;;;12.8;;
68319;SDS011;55168;51.120;17.024;2022-09-29T05:43:00;19.6;;;12.8;;
68319;SDS011;55168;51.120;17.024;2022-09-29T05:44:00;19.6;;;12.8;;
68319;SDS011;55168;51.120;17.024;2022-09-29T05:45:00;18.1;;;12.8;;
68319;SDS011;55168;51.120;17.024;2022-09-29T05:46:01;18.1;;;12.8;;
68319;SDS011;55168;51.120;17.024;2022-09-29T05:47:00;18.1;;;12.8;;
68319;SDS011;55168;51.120;17.024;2022-09-29T05:48:00;18.1;;;12.8;;
68319;SDS011;55168;51.120;17.024;2022-09-29T05:49:00;18.1;;;12.8;;
68319;SDS011;55168;51.120;17.024;2022-09-29T05:50:00;18.2;;;12.6;;
68319;SDS011;55168;51.120;17.024;2022-09-29T05:51:07;18.2;;;12.6;;
68319;SDS011;55168;51.120;17.024;2022-09-29T05:52:00;18.2;;;12.6;;
68319;SDS011;55168;51.120;17.024;2022-09-29T05:53:02;18.2;;;12.6;;
68319;SDS011;55168;51.120;17.024;2022-09-29T05:54:00;18.2;;;12.6;;
68319;SDS011;55168;51.120;17.024;2022-09-29T05:55:00;17.1;;;12.4;;
68319;SDS011;55168;51.120;17.024;2022-09-29T05:56:09;17.1;;;12.4;;
68319;SDS011;55168;51.120;17.024;2022-09-29T05:57:00;17.1;;;12.4;;
68319;SDS011;55168;51.120;17.024;2022-09-29T05:58:00;17.1;;;12.4;;
68319;SDS011;55168;51.120;17.024;2022-09-29T05:59:00;17.1;;;12.4;;
68319;SDS011;55168;51.120;17.024;2022-09-29T06:00:00;21.3;;;13.6;;
68319;SDS011;55168;51.120;17.024;2022-09-29T06:01:03;21.3;;;13.6;;
68319;SDS011;55168;51.120;17.024;2022-09-29T06:02:00;21.3;;;13.6;;
68319;SDS011;55168;51.120;17.024;2022-09-29T06:03:00;21.3;;;13.6;;
68319;SDS011;55168;51.120;17.024;2022-09-29T06:04:00;21.3;;;13.6;;
68319;SDS011;55168;51.120;17.024;2022-09-29T06:05:00;21.5;;;13.6;;
68319;SDS011;55168;51.120;17.024;2022-09-29T06:06:09;21.5;;;13.6;;
68319;SDS011;55168;51.120;17.024;2022-09-29T06:07:00;21.5;;;13.6;;
68319;SDS011;55168;51.120;17.024;2022-09-29T06:08:00;21.5;;;13.6;;
68319;SDS011;55168;51.120;17.024;2022-09-29T06:09:00;21.5;;;13.6;;
68319;SDS011;55168;51.120;17.024;2022-09-29T06:10:00;19.6;;;12.1;;
68319;SDS011;55168;51.120;17.024;2022-09-29T06:11:04;19.6;;;12.1;;
68319;SDS011;55168;51.120;17.024;2022-09-29T06:12:00;19.6;;;12.1;;
68319;SDS011;55168;51.120;17.024;2022-09-29T06:13:00;19.6;;;12.1;;
68319;SDS011;55168;51.120;17.024;2022-09-29T06:14:00;19.6;;;12.1;;
68319;SDS011;55168;51.120;17.024;2022-09-29T06:15:00;11.6;;;9.6;;
68319;SDS011;55168;51.120;17.024;2022-09-29T06:16:00;11.6;;;9.6;;
68319;SDS011;55168;51.120;17.024;2022-09-29T06:17:00;11.6;;;9.6;;
68319;SDS011;55168;51.120;17.024;2022-09-29T06:18:00;11.6;;;9.6;;
68319;SDS011;55168;51.120;17.024;2022-09-29T06:19:01;11.6;;;9.6;;
68319;SDS011;55168;51.120;17.024;2022-09-29T06:20:00;11.7;;;9.5;;
68319;SDS011;55168;51.120;17.024;2022-09-29T06:21:02;11.7;;;9.5;;
68319;SDS011;55168;51.120;17.024;2022-09-29T06:22:00;11.7;;;9.5;;